KLC334 PHKO-PHNL
Flight info
| Callsign | KLC334 |
|---|---|
| Flight time | 0h 33m |
| Altitude | 22000 |
| Route | AMERY4 TYPHO HOKLA JULLE5 |
| Aircraft | E190/M-SDE3GILORVW/S |
Departure
| Time | 2026-04-23 00:20 |
|---|---|
| Airport | Ellison Onizuka Kona International Airport at Keāhole (PHKO) |
Arrival
| Time | 2026-04-23 00:53 |
|---|---|
| Airport | Daniel K. Inouye International Airport (PHNL) |
| Time | Latitude | Longitude | Altitude | Speed | Heading |
|---|---|---|---|---|---|
| 2026-04-22 23:58 | 19.73510 | -156.04219 | 47 ft | 0 kts | 43° |
| 2026-04-23 00:11 | 19.73501 | -156.04228 | 46 ft | 2 kts | 43° |
| 2026-04-23 00:11 | 19.73489 | -156.04240 | 45 ft | 2 kts | 47° |
| 2026-04-23 00:11 | 19.73478 | -156.04253 | 46 ft | 2 kts | 57° |
| 2026-04-23 00:12 | 19.73473 | -156.04269 | 43 ft | 2 kts | 87° |
| 2026-04-23 00:12 | 19.73473 | -156.04286 | 43 ft | 2 kts | 93° |
| 2026-04-23 00:12 | 19.73473 | -156.04303 | 42 ft | 2 kts | 102° |
| 2026-04-23 00:12 | 19.73479 | -156.04319 | 43 ft | 2 kts | 118° |
| 2026-04-23 00:13 | 19.73488 | -156.04334 | 41 ft | 2 kts | 138° |
| 2026-04-23 00:13 | 19.73502 | -156.04341 | 43 ft | 2 kts | 188° |
| 2026-04-23 00:13 | 19.73503 | -156.04341 | 43 ft | 0 kts | 188° |
| 2026-04-23 00:14 | 19.73502 | -156.04341 | 43 ft | 1 kts | 188° |
| 2026-04-23 00:15 | 19.73487 | -156.04343 | 41 ft | 3 kts | 188° |
| 2026-04-23 00:15 | 19.73461 | -156.04346 | 44 ft | 4 kts | 186° |
| 2026-04-23 00:15 | 19.73427 | -156.04350 | 46 ft | 5 kts | 185° |
| 2026-04-23 00:15 | 19.73387 | -156.04353 | 47 ft | 6 kts | 185° |
| 2026-04-23 00:16 | 19.73335 | -156.04358 | 48 ft | 9 kts | 185° |
| 2026-04-23 00:16 | 19.73261 | -156.04365 | 50 ft | 12 kts | 185° |
| 2026-04-23 00:16 | 19.73163 | -156.04374 | 50 ft | 16 kts | 185° |
| 2026-04-23 00:16 | 19.73043 | -156.04385 | 48 ft | 19 kts | 185° |
| 2026-04-23 00:17 | 19.72907 | -156.04398 | 48 ft | 20 kts | 185° |
| 2026-04-23 00:17 | 19.72762 | -156.04411 | 48 ft | 22 kts | 184° |
| 2026-04-23 00:17 | 19.72601 | -156.04424 | 44 ft | 25 kts | 185° |
| 2026-04-23 00:17 | 19.72441 | -156.04438 | 43 ft | 21 kts | 184° |
| 2026-04-23 00:18 | 19.72359 | -156.04510 | 43 ft | 13 kts | 269° |
| 2026-04-23 00:18 | 19.72367 | -156.04611 | 44 ft | 14 kts | 279° |
| 2026-04-23 00:18 | 19.72414 | -156.04693 | 46 ft | 13 kts | 343° |
| 2026-04-23 00:18 | 19.72503 | -156.04689 | 47 ft | 15 kts | 5° |
| 2026-04-23 00:19 | 19.72841 | -156.04659 | 43 ft | 84 kts | 5° |
| 2026-04-23 00:19 | 19.73639 | -156.04589 | 46 ft | 144 kts | 4° |
| 2026-04-23 00:19 | 19.74737 | -156.04441 | 381 ft | 173 kts | 5° |
| 2026-04-23 00:19 | 19.76078 | -156.04478 | 583 ft | 206 kts | 339° |
| 2026-04-23 00:20 | 19.77150 | -156.05354 | 817 ft | 187 kts | 307° |
| 2026-04-23 00:20 | 19.77825 | -156.06592 | 837 ft | 214 kts | 295° |
| 2026-04-23 00:20 | 19.78382 | -156.08165 | 1668 ft | 233 kts | 293° |
| 2026-04-23 00:20 | 19.78960 | -156.09800 | 2882 ft | 238 kts | 292° |
| 2026-04-23 00:21 | 19.79552 | -156.11474 | 3893 ft | 253 kts | 291° |
| 2026-04-23 00:21 | 19.80173 | -156.13292 | 4789 ft | 270 kts | 290° |
| 2026-04-23 00:21 | 19.80787 | -156.15202 | 5889 ft | 275 kts | 289° |
| 2026-04-23 00:21 | 19.81387 | -156.17137 | 7077 ft | 276 kts | 288° |
| 2026-04-23 00:22 | 19.81953 | -156.19096 | 8187 ft | 279 kts | 286° |
| 2026-04-23 00:22 | 19.82610 | -156.21043 | 9263 ft | 283 kts | 297° |
| 2026-04-23 00:22 | 19.83607 | -156.22836 | 10255 ft | 291 kts | 302° |
| 2026-04-23 00:22 | 19.84818 | -156.24672 | 10868 ft | 312 kts | 306° |
| 2026-04-23 00:23 | 19.86122 | -156.26627 | 11572 ft | 328 kts | 306° |
| 2026-04-23 00:23 | 19.87444 | -156.28625 | 12307 ft | 342 kts | 306° |
| 2026-04-23 00:23 | 19.88834 | -156.30734 | 13062 ft | 354 kts | 307° |
| 2026-04-23 00:23 | 19.90261 | -156.32907 | 13969 ft | 362 kts | 307° |
| 2026-04-23 00:24 | 19.91712 | -156.35118 | 14918 ft | 366 kts | 307° |
| 2026-04-23 00:24 | 19.93173 | -156.37350 | 15938 ft | 370 kts | 307° |
| 2026-04-23 00:24 | 19.94645 | -156.39602 | 16928 ft | 373 kts | 307° |
| 2026-04-23 00:24 | 19.96134 | -156.41875 | 17875 ft | 377 kts | 306° |
| 2026-04-23 00:25 | 19.97628 | -156.44179 | 18735 ft | 378 kts | 306° |
| 2026-04-23 00:25 | 19.99134 | -156.46492 | 19478 ft | 381 kts | 306° |
| 2026-04-23 00:25 | 20.00645 | -156.48816 | 20256 ft | 383 kts | 306° |
| 2026-04-23 00:25 | 20.02175 | -156.51167 | 20866 ft | 389 kts | 305° |
| 2026-04-23 00:26 | 20.03718 | -156.53546 | 21584 ft | 390 kts | 305° |
| 2026-04-23 00:26 | 20.05277 | -156.55947 | 22116 ft | 395 kts | 304° |
| 2026-04-23 00:26 | 20.06787 | -156.58273 | 22066 ft | 378 kts | 305° |
| 2026-04-23 00:26 | 20.08250 | -156.60529 | 22006 ft | 361 kts | 305° |
| 2026-04-23 00:27 | 20.09649 | -156.62684 | 21969 ft | 349 kts | 305° |
| 2026-04-23 00:27 | 20.11010 | -156.64783 | 21977 ft | 342 kts | 305° |
| 2026-04-23 00:27 | 20.12358 | -156.66861 | 21986 ft | 342 kts | 305° |
| 2026-04-23 00:27 | 20.13706 | -156.68941 | 21977 ft | 341 kts | 305° |
| 2026-04-23 00:28 | 20.15056 | -156.71025 | 21985 ft | 342 kts | 305° |
| 2026-04-23 00:28 | 20.16401 | -156.73103 | 21987 ft | 340 kts | 305° |
| 2026-04-23 00:28 | 20.17746 | -156.75179 | 21985 ft | 341 kts | 305° |
| 2026-04-23 00:28 | 20.19089 | -156.77257 | 21996 ft | 341 kts | 305° |
| 2026-04-23 00:29 | 20.20437 | -156.79338 | 21996 ft | 342 kts | 305° |
| 2026-04-23 00:29 | 20.21788 | -156.81429 | 21998 ft | 342 kts | 305° |
| 2026-04-23 00:29 | 20.23272 | -156.83397 | 21994 ft | 341 kts | 315° |
| 2026-04-23 00:29 | 20.24981 | -156.85147 | 22000 ft | 341 kts | 317° |
| 2026-04-23 00:30 | 20.26714 | -156.86878 | 21999 ft | 341 kts | 317° |
| 2026-04-23 00:30 | 20.28445 | -156.88611 | 22001 ft | 341 kts | 317° |
| 2026-04-23 00:30 | 20.30171 | -156.90342 | 22009 ft | 341 kts | 317° |
| 2026-04-23 00:30 | 20.31897 | -156.92072 | 22010 ft | 341 kts | 317° |
| 2026-04-23 00:31 | 20.33623 | -156.93811 | 22011 ft | 341 kts | 317° |
| 2026-04-23 00:31 | 20.35344 | -156.95553 | 22012 ft | 341 kts | 317° |
| 2026-04-23 00:31 | 20.37068 | -156.97298 | 22011 ft | 341 kts | 317° |
| 2026-04-23 00:31 | 20.38788 | -156.99039 | 22013 ft | 341 kts | 317° |
| 2026-04-23 00:32 | 20.40509 | -157.00782 | 22011 ft | 341 kts | 317° |
| 2026-04-23 00:32 | 20.42228 | -157.02523 | 22012 ft | 341 kts | 317° |
| 2026-04-23 00:32 | 20.43930 | -157.04246 | 21997 ft | 341 kts | 317° |
| 2026-04-23 00:32 | 20.45650 | -157.05990 | 21993 ft | 341 kts | 317° |
| 2026-04-23 00:33 | 20.47368 | -157.07731 | 22003 ft | 341 kts | 317° |
| 2026-04-23 00:33 | 20.49091 | -157.09479 | 22006 ft | 341 kts | 317° |
| 2026-04-23 00:33 | 20.50810 | -157.11222 | 22008 ft | 341 kts | 317° |
| 2026-04-23 00:33 | 20.52531 | -157.12970 | 22010 ft | 341 kts | 317° |
| 2026-04-23 00:34 | 20.54249 | -157.14713 | 22011 ft | 341 kts | 317° |
| 2026-04-23 00:34 | 20.55970 | -157.16461 | 22016 ft | 341 kts | 317° |
| 2026-04-23 00:34 | 20.57696 | -157.18213 | 21767 ft | 345 kts | 317° |
| 2026-04-23 00:34 | 20.59425 | -157.19971 | 21569 ft | 341 kts | 317° |
| 2026-04-23 00:35 | 20.61141 | -157.21714 | 21268 ft | 341 kts | 317° |
| 2026-04-23 00:35 | 20.62863 | -157.23466 | 20772 ft | 342 kts | 317° |
| 2026-04-23 00:35 | 20.64581 | -157.25213 | 20298 ft | 340 kts | 317° |
| 2026-04-23 00:35 | 20.66265 | -157.26927 | 19830 ft | 336 kts | 317° |
| 2026-04-23 00:36 | 20.67941 | -157.28651 | 19376 ft | 333 kts | 317° |
| 2026-04-23 00:36 | 20.69595 | -157.30358 | 18932 ft | 329 kts | 317° |
| 2026-04-23 00:36 | 20.71232 | -157.32049 | 18495 ft | 326 kts | 317° |
| 2026-04-23 00:36 | 20.72857 | -157.33726 | 18032 ft | 323 kts | 317° |
| 2026-04-23 00:37 | 20.74458 | -157.35380 | 17638 ft | 318 kts | 317° |
| 2026-04-23 00:37 | 20.76042 | -157.37015 | 17214 ft | 316 kts | 317° |
| 2026-04-23 00:37 | 20.77089 | -157.38095 | 16940 ft | 315 kts | 317° |
| 2026-04-23 00:37 | 20.78668 | -157.39727 | 16526 ft | 315 kts | 317° |
| 2026-04-23 00:38 | 20.80242 | -157.41352 | 16105 ft | 315 kts | 317° |
| 2026-04-23 00:38 | 20.81822 | -157.42986 | 15679 ft | 315 kts | 318° |
| 2026-04-23 00:38 | 20.83396 | -157.44612 | 15266 ft | 314 kts | 318° |
| 2026-04-23 00:38 | 20.84968 | -157.46239 | 14848 ft | 313 kts | 318° |
| 2026-04-23 00:39 | 20.86533 | -157.47856 | 14437 ft | 312 kts | 318° |
| 2026-04-23 00:39 | 20.88072 | -157.49450 | 14023 ft | 311 kts | 318° |
| 2026-04-23 00:39 | 20.89626 | -157.51056 | 13589 ft | 309 kts | 318° |
| 2026-04-23 00:39 | 20.91160 | -157.52644 | 13200 ft | 305 kts | 318° |
| 2026-04-23 00:40 | 20.92679 | -157.54218 | 12788 ft | 302 kts | 318° |
| 2026-04-23 00:40 | 20.94185 | -157.55777 | 12383 ft | 300 kts | 318° |
| 2026-04-23 00:40 | 20.95659 | -157.57355 | 11982 ft | 299 kts | 310° |
| 2026-04-23 00:40 | 20.96619 | -157.59317 | 11612 ft | 299 kts | 291° |
| 2026-04-23 00:41 | 20.97267 | -157.61431 | 11209 ft | 299 kts | 289° |
| 2026-04-23 00:41 | 20.97919 | -157.63546 | 10796 ft | 297 kts | 289° |
| 2026-04-23 00:41 | 20.98570 | -157.65634 | 10393 ft | 294 kts | 289° |
| 2026-04-23 00:41 | 20.99222 | -157.67700 | 10015 ft | 292 kts | 289° |
| 2026-04-23 00:42 | 20.99865 | -157.69745 | 9605 ft | 288 kts | 289° |
| 2026-04-23 00:42 | 21.00504 | -157.71761 | 9248 ft | 284 kts | 289° |
| 2026-04-23 00:42 | 21.01136 | -157.73759 | 8876 ft | 282 kts | 289° |
| 2026-04-23 00:42 | 21.01757 | -157.75715 | 8511 ft | 281 kts | 289° |
| 2026-04-23 00:43 | 21.02385 | -157.77689 | 8134 ft | 280 kts | 289° |
| 2026-04-23 00:43 | 21.03009 | -157.79655 | 7769 ft | 278 kts | 289° |
| 2026-04-23 00:43 | 21.03629 | -157.81608 | 7391 ft | 276 kts | 290° |
| 2026-04-23 00:43 | 21.04245 | -157.83549 | 7028 ft | 274 kts | 290° |
| 2026-04-23 00:44 | 21.04856 | -157.85479 | 6664 ft | 272 kts | 290° |
| 2026-04-23 00:44 | 21.05464 | -157.87394 | 6293 ft | 271 kts | 290° |
| 2026-04-23 00:44 | 21.06068 | -157.89301 | 5936 ft | 269 kts | 290° |
| 2026-04-23 00:44 | 21.06661 | -157.91175 | 5586 ft | 268 kts | 290° |
| 2026-04-23 00:45 | 21.07261 | -157.93063 | 5229 ft | 267 kts | 291° |
| 2026-04-23 00:45 | 21.08139 | -157.94783 | 4892 ft | 260 kts | 308° |
| 2026-04-23 00:45 | 21.09260 | -157.96260 | 4580 ft | 250 kts | 312° |
| 2026-04-23 00:45 | 21.10335 | -157.97665 | 4211 ft | 238 kts | 310° |
| 2026-04-23 00:46 | 21.11352 | -157.99014 | 3898 ft | 228 kts | 311° |
| 2026-04-23 00:46 | 21.12320 | -158.00307 | 3593 ft | 218 kts | 310° |
| 2026-04-23 00:46 | 21.13251 | -158.01555 | 3318 ft | 210 kts | 311° |
| 2026-04-23 00:46 | 21.14148 | -158.02757 | 3052 ft | 202 kts | 311° |
| 2026-04-23 00:47 | 21.15166 | -158.03732 | 2781 ft | 193 kts | 330° |
| 2026-04-23 00:47 | 21.16267 | -158.04517 | 2588 ft | 188 kts | 327° |
| 2026-04-23 00:47 | 21.17310 | -158.05315 | 2353 ft | 185 kts | 327° |
| 2026-04-23 00:47 | 21.18337 | -158.06113 | 2207 ft | 179 kts | 327° |
| 2026-04-23 00:48 | 21.19402 | -158.06770 | 1989 ft | 181 kts | 343° |
| 2026-04-23 00:48 | 21.20608 | -158.06867 | 1944 ft | 170 kts | 12° |
| 2026-04-23 00:48 | 21.21694 | -158.06396 | 2035 ft | 171 kts | 35° |
| 2026-04-23 00:48 | 21.22524 | -158.05486 | 2033 ft | 173 kts | 52° |
| 2026-04-23 00:49 | 21.23246 | -158.04459 | 2026 ft | 171 kts | 52° |
| 2026-04-23 00:49 | 21.23960 | -158.03458 | 2144 ft | 167 kts | 52° |
| 2026-04-23 00:49 | 21.24647 | -158.02503 | 2187 ft | 156 kts | 51° |
| 2026-04-23 00:49 | 21.25278 | -158.01603 | 1979 ft | 146 kts | 53° |
| 2026-04-23 00:50 | 21.25856 | -158.00783 | 1890 ft | 132 kts | 52° |
| 2026-04-23 00:50 | 21.26404 | -158.00012 | 1802 ft | 128 kts | 52° |
| 2026-04-23 00:50 | 21.26937 | -157.99259 | 1638 ft | 127 kts | 52° |
| 2026-04-23 00:50 | 21.27468 | -157.98509 | 1466 ft | 124 kts | 52° |
| 2026-04-23 00:51 | 21.27988 | -157.97776 | 1333 ft | 122 kts | 54° |
| 2026-04-23 00:51 | 21.28492 | -157.97058 | 1190 ft | 121 kts | 53° |
| 2026-04-23 00:51 | 21.29014 | -157.96323 | 1087 ft | 127 kts | 54° |
| 2026-04-23 00:51 | 21.29552 | -157.95568 | 947 ft | 130 kts | 54° |
| 2026-04-23 00:52 | 21.30102 | -157.94795 | 797 ft | 130 kts | 58° |
| 2026-04-23 00:52 | 21.30633 | -157.94033 | 637 ft | 127 kts | 58° |
| 2026-04-23 00:52 | 21.31168 | -157.93284 | 411 ft | 132 kts | 59° |
| 2026-04-23 00:52 | 21.31715 | -157.92502 | 122 ft | 128 kts | 57° |
| 2026-04-23 00:53 | 21.32216 | -157.91774 | 13 ft | 105 kts | 58° |
| 2026-04-23 00:53 | 21.32550 | -157.91306 | 7 ft | 59 kts | 51° |
| 2026-04-23 00:53 | 21.32785 | -157.90985 | 10 ft | 51 kts | 54° |
| 2026-04-23 00:53 | 21.32941 | -157.90763 | 10 ft | 20 kts | 46° |
| 2026-04-23 00:54 | 21.33031 | -157.90760 | 7 ft | 14 kts | 305° |
| 2026-04-23 00:54 | 21.33034 | -157.90861 | 12 ft | 13 kts | 259° |
| 2026-04-23 00:54 | 21.32985 | -157.90945 | 13 ft | 14 kts | 231° |
| 2026-04-23 00:54 | 21.32924 | -157.91033 | 12 ft | 16 kts | 233° |
| 2026-04-23 00:55 | 21.32854 | -157.91132 | 14 ft | 17 kts | 232° |
| 2026-04-23 00:55 | 21.32775 | -157.91241 | 14 ft | 20 kts | 232° |
| 2026-04-23 00:55 | 21.32699 | -157.91370 | 9 ft | 21 kts | 255° |
| 2026-04-23 00:55 | 21.32692 | -157.91532 | 9 ft | 22 kts | 270° |
| 2026-04-23 00:56 | 21.32692 | -157.91683 | 11 ft | 19 kts | 270° |
| 2026-04-23 00:56 | 21.32690 | -157.91811 | 11 ft | 13 kts | 269° |
| 2026-04-23 00:56 | 21.32736 | -157.91865 | 16 ft | 12 kts | 1° |
| 2026-04-23 00:56 | 21.32825 | -157.91853 | 10 ft | 14 kts | 10° |
| 2026-04-23 00:57 | 21.32924 | -157.91834 | 12 ft | 15 kts | 10° |
| 2026-04-23 00:57 | 21.33022 | -157.91817 | 13 ft | 15 kts | 9° |
| 2026-04-23 00:57 | 21.33092 | -157.91803 | 15 ft | 0 kts | 9° |